Carstairs, Canada
Current Conditions -  °F | °C
As of 2:00 AM on Friday 24 Oct 2014 (Local Time) from CYYC Reporting Station
Few Clouds Few Clouds  
Wind Chill: 40°   Ceiling: Unl
Heat Index: 46°   Visibility: 15mi
Dew Point: 25°   Wind: 14mph
Humidity: 43%   Direction: 290°WNW
Pressure: 29.7"   Gusts: NA
Location:  51.53°N, 114.1°W
Report Text: CYYC 240800Z 29012KT 15SM FEW180 08/M04 A2970 RMK AC2 SLP067 DENSITY ALT 3800FT
Loading
Personal Weather Stations






























Interactive Weather Map
Tropical Storm Tracking
New forecast layout! Learn more

10-Day Weather Forecast

Advertisements
Track Severe Weather on mobile